createdAt,value
2022-09-06T00:03:14.499Z,79.60
2022-09-06T00:08:19.066Z,82.40
2022-09-06T00:13:21.735Z,84.31
2022-09-06T00:18:27.704Z,87.07
2022-09-06T00:23:31.847Z,87.39
2022-09-06T00:28:34.578Z,87.93
2022-09-06T00:33:37.449Z,90.40
2022-09-06T00:38:42.039Z,87.14
2022-09-06T00:43:45.545Z,87.98
2022-09-06T00:48:52.706Z,89.13
2022-09-06T00:53:57.339Z,89.13
2022-09-06T00:59:01.371Z,87.03
2022-09-06T01:04:05.094Z,83.96
2022-09-06T01:09:26.157Z,82.81
2022-09-06T01:14:41.610Z,81.64
2022-09-06T01:20:20.577Z,82.36
2022-09-06T01:25:37.559Z,82.99
2022-09-06T01:30:48.276Z,82.14
2022-09-06T01:35:58.039Z,80.73
2022-09-06T01:41:00.780Z,79.00
2022-09-06T01:46:14.175Z,78.61
2022-09-06T01:51:28.080Z,76.44
2022-09-06T01:56:39.260Z,74.88
2022-09-06T02:01:57.270Z,74.27
2022-09-06T02:07:03.069Z,75.47
2022-09-06T02:12:08.919Z,74.26
2022-09-06T02:17:16.735Z,74.47
2022-09-06T02:22:23.587Z,74.43
2022-09-06T02:27:26.435Z,74.50
2022-09-06T02:32:32.904Z,75.62
2022-09-06T02:37:35.789Z,75.24
2022-09-06T02:42:39.181Z,75.97
2022-09-06T02:47:43.261Z,75.00
2022-09-06T02:52:46.529Z,78.84
2022-09-06T02:57:49.217Z,82.51
2022-09-06T03:02:53.297Z,85.73
2022-09-06T03:07:56.683Z,87.43
2022-09-06T03:12:59.507Z,88.28
2022-09-06T03:18:03.544Z,99.19
2022-09-06T03:23:06.226Z,100.00
2022-09-06T03:28:08.919Z,97.38
2022-09-06T03:33:13.093Z,96.03
2022-09-06T03:38:15.770Z,100.00
2022-09-06T03:43:20.211Z,100.00
2022-09-06T03:48:26.779Z,100.00
2022-09-06T03:53:30.418Z,100.00
2022-09-06T03:58:34.223Z,98.68
2022-09-06T04:03:39.446Z,100.00
2022-09-06T04:08:42.119Z,100.00
2022-09-06T04:13:44.831Z,96.16
2022-09-06T04:18:48.894Z,100.00
2022-09-06T04:23:51.553Z,100.00
2022-09-06T04:28:54.579Z,100.00
2022-09-06T04:33:58.769Z,100.00
2022-09-06T04:39:01.504Z,100.00
2022-09-06T04:44:04.241Z,100.00
2022-09-06T04:49:08.282Z,99.93
2022-09-06T04:54:10.933Z,100.00
2022-09-06T04:59:13.721Z,100.00
2022-09-06T05:04:17.821Z,100.00
2022-09-06T05:09:20.955Z,100.00
2022-09-06T05:14:23.795Z,100.00
2022-09-06T05:19:27.871Z,100.00
2022-09-06T05:24:30.632Z,100.00
2022-09-06T05:29:33.295Z,100.00
2022-09-06T05:34:37.316Z,100.00
2022-09-06T05:39:40.094Z,100.00
2022-09-06T05:44:42.803Z,100.00
2022-09-06T05:49:47.249Z,100.00
2022-09-06T05:54:49.913Z,100.00
2022-09-06T05:59:53.495Z,100.00
2022-09-06T06:04:58.768Z,100.00
2022-09-06T06:10:01.475Z,100.00
2022-09-06T06:15:05.690Z,100.00
2022-09-06T06:20:10.813Z,98.94
2022-09-06T06:25:13.582Z,100.00
2022-09-06T06:30:18.450Z,100.00
2022-09-06T06:35:22.715Z,100.00
2022-09-06T06:40:25.448Z,99.60
2022-09-06T06:45:28.194Z,98.65
2022-09-06T06:50:32.249Z,96.56
2022-09-06T06:55:34.949Z,94.46
2022-09-06T07:00:37.752Z,91.81
2022-09-06T07:11:07.003Z,85.96
2022-09-06T07:16:12.294Z,83.84
2022-09-06T07:26:41.839Z,80.47
2022-09-06T07:37:08.720Z,75.70
2022-09-06T07:42:11.433Z,73.83
2022-09-06T07:58:02.785Z,66.66
2022-09-06T08:03:05.458Z,65.00
2022-09-06T08:13:32.172Z,63.02
2022-09-06T08:18:34.883Z,62.78
2022-09-06T08:23:39.395Z,62.18
2022-09-06T08:28:42.178Z,61.60
2022-09-06T08:33:45.566Z,60.39
2022-09-06T08:38:50.662Z,59.18
2022-09-06T08:49:19.099Z,56.37
2022-09-06T08:54:29.849Z,56.27
2022-09-06T08:59:39.000Z,55.70
2022-09-06T09:04:45.412Z,55.28
2022-09-06T09:09:50.667Z,54.34
2022-09-06T09:14:58.125Z,54.26
2022-09-06T09:20:00.823Z,53.95
2022-09-06T09:25:08.618Z,53.06
2022-09-06T09:35:42.150Z,51.19
2022-09-06T09:40:53.403Z,51.29
2022-09-06T09:46:18.138Z,50.56
2022-09-06T09:51:27.017Z,50.58
2022-09-06T09:56:37.847Z,49.95
2022-09-06T10:01:40.517Z,49.52
2022-09-06T10:12:08.335Z,45.89
2022-09-06T10:17:20.606Z,44.75
2022-09-06T10:22:29.332Z,46.15
2022-09-06T10:27:33.950Z,45.48
2022-09-06T10:32:42.939Z,45.58
2022-09-06T10:37:49.872Z,44.89
2022-09-06T10:42:58.039Z,45.29
2022-09-06T10:48:05.239Z,44.54
2022-09-06T10:53:13.493Z,44.45
2022-09-06T10:58:25.886Z,43.47
2022-09-06T11:09:00.526Z,43.19
2022-09-06T11:14:08.571Z,42.98
2022-09-06T11:19:17.753Z,42.23
2022-09-06T11:24:37.308Z,41.37
2022-09-06T11:29:45.411Z,41.51
2022-09-06T11:34:55.778Z,41.47
2022-09-06T11:40:31.334Z,39.95
2022-09-06T11:45:45.503Z,40.40
2022-09-06T11:51:06.525Z,40.14
2022-09-06T11:56:25.258Z,39.25
2022-09-06T12:01:37.787Z,39.75
2022-09-06T12:06:43.699Z,38.40
2022-09-06T12:11:48.584Z,38.11
2022-09-06T12:17:21.168Z,35.91
2022-09-06T12:22:53.437Z,34.50
2022-09-06T12:27:58.588Z,33.72
2022-09-06T12:33:06.243Z,33.29
2022-09-06T12:38:15.762Z,33.76
2022-09-06T12:43:20.020Z,33.23
2022-09-06T12:48:32.362Z,31.21
2022-09-06T12:53:35.971Z,32.05
2022-09-06T12:58:39.545Z,33.76
2022-09-06T13:03:48.994Z,32.69
2022-09-06T13:08:55.509Z,33.90
2022-09-06T13:13:58.809Z,32.83
2022-09-06T13:19:14.779Z,31.91
2022-09-06T13:24:23.728Z,31.11
2022-09-06T13:29:31.343Z,31.05
2022-09-06T13:34:56.728Z,32.21
2022-09-06T13:39:59.764Z,33.53
2022-09-06T13:45:22.415Z,34.60
2022-09-06T13:50:27.972Z,36.58
2022-09-06T13:55:33.146Z,37.01
2022-09-06T14:00:35.994Z,38.81
2022-09-06T14:05:40.112Z,43.12
2022-09-06T14:10:42.895Z,43.23
2022-09-06T14:15:46.547Z,43.00
2022-09-06T14:20:56.086Z,43.77
2022-09-06T14:25:59.503Z,43.39
2022-09-06T14:31:11.320Z,43.60
2022-09-06T14:36:17.611Z,43.49
2022-09-06T14:41:21.415Z,42.68
2022-09-06T14:46:26.317Z,41.11
2022-09-06T14:51:31.568Z,39.45
2022-09-06T14:56:34.647Z,36.86
2022-09-06T15:01:38.988Z,37.55
2022-09-06T15:06:50.420Z,37.47
2022-09-06T15:11:54.550Z,38.97
2022-09-06T15:16:59.813Z,37.92
2022-09-06T15:22:05.123Z,38.57
2022-09-06T15:27:08.050Z,38.56
2022-09-06T15:32:10.797Z,41.54
2022-09-06T15:37:14.995Z,44.70
2022-09-06T15:42:17.872Z,45.71
2022-09-06T15:47:20.633Z,47.22
2022-09-06T15:52:24.739Z,48.32
2022-09-06T15:57:28.795Z,48.81
2022-09-06T16:02:31.559Z,50.31
2022-09-06T16:07:38.164Z,49.91
2022-09-06T16:12:41.146Z,48.78
2022-09-06T16:17:43.922Z,47.85
2022-09-06T16:22:50.011Z,47.97
2022-09-06T16:27:52.753Z,49.82
2022-09-06T16:32:55.561Z,51.17
2022-09-06T16:38:02.352Z,51.66
2022-09-06T16:43:05.339Z,52.12
2022-09-06T16:48:08.391Z,52.13
2022-09-06T16:53:12.518Z,51.82
2022-09-06T16:58:15.318Z,50.95
2022-09-06T17:03:18.249Z,50.23
2022-09-06T17:08:22.348Z,50.19
2022-09-06T17:13:25.123Z,50.44
2022-09-06T17:18:28.238Z,50.37
2022-09-06T17:23:33.267Z,50.63
2022-09-06T17:28:37.148Z,51.45
2022-09-06T17:33:40.400Z,52.59
2022-09-06T17:38:49.857Z,52.71
2022-09-06T17:43:58.569Z,53.31
2022-09-06T17:49:01.479Z,54.00
2022-09-06T17:54:07.830Z,54.35
2022-09-06T17:59:13.922Z,53.72
2022-09-06T18:04:17.593Z,54.90
2022-09-06T18:09:21.759Z,56.92
2022-09-06T18:14:24.603Z,58.74
2022-09-06T18:19:27.913Z,59.07
2022-09-06T18:24:32.163Z,59.56
2022-09-06T18:29:34.997Z,60.24
2022-09-06T18:34:37.821Z,60.60
2022-09-06T18:39:42.839Z,60.58
2022-09-06T18:44:45.808Z,60.99
2022-09-06T18:49:48.537Z,60.19
2022-09-06T18:54:52.643Z,60.75
2022-09-06T18:59:55.398Z,61.06
2022-09-06T19:04:59.187Z,62.88
2022-09-06T19:10:04.425Z,63.54
2022-09-06T19:15:07.713Z,63.07
2022-09-06T19:20:12.010Z,64.40
2022-09-06T19:25:16.190Z,64.12
2022-09-06T19:30:19.817Z,65.64
2022-09-06T19:35:22.567Z,67.65
2022-09-06T19:40:26.733Z,68.60
2022-09-06T19:45:29.462Z,68.79
2022-09-06T19:50:34.635Z,69.91
2022-09-06T19:55:38.895Z,69.37
2022-09-06T20:00:42.579Z,70.06
2022-09-06T20:05:45.456Z,71.58
2022-09-06T20:10:57.060Z,71.27
2022-09-06T20:15:59.830Z,70.62
2022-09-06T20:21:03.202Z,71.41
2022-09-06T20:26:08.905Z,71.46
2022-09-06T20:31:15.423Z,71.49
2022-09-06T20:36:19.087Z,72.00
2022-09-06T20:41:25.141Z,72.03
2022-09-06T20:46:30.123Z,71.44
2022-09-06T20:51:34.661Z,71.01
2022-09-06T20:56:42.819Z,70.54
2022-09-06T21:01:47.898Z,70.85
2022-09-06T21:06:50.975Z,69.81
2022-09-06T21:11:55.149Z,68.65
2022-09-06T21:16:58.364Z,70.34
2022-09-06T21:22:01.059Z,73.88
2022-09-06T21:27:06.727Z,74.17
2022-09-06T21:32:09.471Z,75.20
2022-09-06T21:37:12.227Z,75.54
2022-09-06T21:42:17.166Z,74.25
2022-09-06T21:47:19.915Z,72.55
2022-09-06T21:52:23.826Z,73.19
2022-09-06T21:57:27.910Z,74.34
2022-09-06T22:02:30.719Z,75.91
2022-09-06T22:07:35.373Z,76.79
2022-09-06T22:12:39.602Z,77.81
2022-09-06T22:17:42.416Z,78.84
2022-09-06T22:22:46.153Z,79.46
2022-09-06T22:27:50.339Z,77.50
2022-09-06T22:32:53.365Z,78.78
2022-09-06T22:37:56.223Z,76.64
2022-09-06T22:43:00.378Z,76.39
2022-09-06T22:48:03.665Z,77.45
2022-09-06T22:53:06.494Z,82.15
2022-09-06T22:58:10.606Z,83.11
2022-09-06T23:03:13.430Z,83.75
2022-09-06T23:08:16.693Z,84.55
2022-09-06T23:13:20.933Z,84.65
2022-09-06T23:18:23.737Z,83.76
2022-09-06T23:23:26.458Z,82.91
2022-09-06T23:28:30.685Z,80.24
2022-09-06T23:33:35.027Z,79.35
2022-09-06T23:38:39.308Z,79.56
2022-09-06T23:43:44.486Z,79.48
2022-09-06T23:48:47.247Z,83.01
2022-09-06T23:53:50.050Z,84.60
2022-09-06T23:58:54.108Z,86.52
